Time;durP1;ratioP1;P1;durP2;ratioP2;P2;SDS_P1;SDS_P2;PMS_P1;PMS_P2;Temp;Humidity;BMP_temperature;BMP_pressure;BME280_temperature;BME280_humidity;BME280_pressure;Samples;Min_cycle;Max_cycle;Signal;HPM_P1;HPM_P2
2023/07/29 00:01:30;;;;;;;84.47;53.30;;;20.80;83.80;;;;;;4961554;28;92951;-84
2023/07/29 00:03:56;;;;;;;83.68;52.97;;;20.80;83.60;;;;;;4962567;28;91161;-83
2023/07/29 00:06:21;;;;;;;83.82;53.15;;;20.70;83.60;;;;;;4967288;28;89650;-83
2023/07/29 00:08:47;;;;;;;83.82;53.08;;;20.70;83.50;;;;;;4965643;28;92829;-83
2023/07/29 00:11:13;;;;;;;84.55;53.55;;;20.70;83.70;;;;;;4981452;28;91849;-83
2023/07/29 00:13:38;;;;;;;84.28;53.35;;;20.70;84.10;;;;;;4967275;28;89458;-85
2023/07/29 00:16:04;;;;;;;83.60;53.08;;;20.60;84.00;;;;;;4963811;28;92249;-84
2023/07/29 00:18:31;;;;;;;83.75;53.05;;;20.60;83.90;;;;;;4965793;28;94698;-84
2023/07/29 00:20:57;;;;;;;83.97;52.92;;;20.60;84.00;;;;;;4981394;28;89205;-83
2023/07/29 00:23:23;;;;;;;85.05;53.28;;;20.60;84.20;;;;;;4966886;28;91367;-85
2023/07/29 00:25:48;;;;;;;83.25;52.90;;;20.60;84.30;;;;;;4983966;28;89219;-84
2023/07/29 00:28:14;;;;;;;83.38;53.15;;;20.60;85.00;;;;;;4968971;28;93039;-83
2023/07/29 00:30:40;;;;;;;83.63;52.97;;;20.60;84.50;;;;;;4963481;28;93081;-83
2023/07/29 00:33:05;;;;;;;83.80;53.15;;;20.60;84.80;;;;;;4966388;28;89727;-83
2023/07/29 00:35:31;;;;;;;84.22;53.33;;;20.60;84.20;;;;;;4965346;28;89796;-84
2023/07/29 00:37:56;;;;;;;83.63;53.15;;;20.50;84.40;;;;;;4980513;28;89452;-83
2023/07/29 00:40:22;;;;;;;83.28;52.95;;;20.50;84.30;;;;;;4964227;28;92754;-84
2023/07/29 00:42:50;;;;;;;84.10;53.20;;;20.50;84.50;;;;;;4967492;28;92849;-83
2023/07/29 00:45:16;;;;;;;84.03;52.95;;;20.50;84.10;;;;;;4982733;28;88423;-83
2023/07/29 00:47:42;;;;;;;83.38;53.13;;;20.50;84.80;;;;;;4963594;28;92550;-83
2023/07/29 00:50:10;;;;;;;83.55;53.17;;;20.50;84.50;;;;;;4960630;28;91742;-84
2023/07/29 00:52:35;;;;;;;83.47;53.10;;;20.50;84.60;;;;;;4963866;28;90258;-83
2023/07/29 00:55:01;;;;;;;83.45;53.13;;;20.40;84.50;;;;;;4966358;28;91758;-83
2023/07/29 00:57:29;;;;;;;83.13;52.92;;;20.40;84.60;;;;;;4982042;28;90779;-83
2023/07/29 00:59:55;;;;;;;83.55;53.00;;;20.40;84.60;;;;;;4963862;28;92784;-85
2023/07/29 01:02:21;;;;;;;84.18;53.33;;;20.40;84.60;;;;;;4960874;28;89906;-83
2023/07/29 01:04:53;;;;;;;83.85;53.15;;;20.30;84.70;;;;;;4978378;28;89314;-85
2023/07/29 01:07:23;;;;;;;83.18;53.15;;;20.30;84.70;;;;;;4965335;28;92853;-83
2023/07/29 01:09:52;;;;;;;84.03;53.33;;;20.30;84.70;;;;;;4979503;28;90966;-84
2023/07/29 01:12:23;;;;;;;83.82;52.97;;;20.30;84.60;;;;;;4977977;28;90667;-84
2023/07/29 01:14:58;;;;;;;83.80;52.97;;;20.30;84.60;;;;;;4983208;28;89457;-84
2023/07/29 01:17:55;;;;;;;83.20;52.92;;;20.30;85.10;;;;;;4965012;28;93476;-82
2023/07/29 01:20:23;;;;;;;82.97;52.97;;;20.30;85.30;;;;;;4960953;28;93612;-82
2023/07/29 01:22:49;;;;;;;83.68;53.05;;;20.30;84.80;;;;;;4982944;28;89410;-83
2023/07/29 01:25:15;;;;;;;84.43;53.20;;;20.30;85.30;;;;;;4967943;28;91134;-84
2023/07/29 01:27:43;;;;;;;83.47;53.22;;;20.20;85.10;;;;;;4988859;28;90038;-82
2023/07/29 01:30:09;;;;;;;84.18;53.25;;;20.20;84.80;;;;;;4967292;28;92404;-83
2023/07/29 01:32:52;;;;;;;82.90;52.95;;;20.20;84.90;;;;;;4968832;28;90746;-83
2023/07/29 01:35:32;;;;;;;84.40;53.25;;;20.20;85.80;;;;;;4992202;28;88663;-83
2023/07/29 01:38:12;;;;;;;83.20;53.05;;;20.20;85.80;;;;;;4996350;28;89961;-83
2023/07/29 01:40:37;;;;;;;82.78;52.90;;;20.10;85.20;;;;;;4988903;28;89653;-85
2023/07/29 01:43:03;;;;;;;84.22;53.13;;;20.10;85.10;;;;;;4968763;28;90139;-83
2023/07/29 01:45:31;;;;;;;83.82;53.15;;;20.10;85.10;;;;;;4988203;28;93451;-85
2023/07/29 01:47:57;;;;;;;82.80;52.90;;;20.10;85.20;;;;;;4978225;28;89413;-83
2023/07/29 01:50:22;;;;;;;82.63;52.88;;;20.10;85.10;;;;;;4965933;28;93376;-83
2023/07/29 01:52:48;;;;;;;83.00;52.78;;;20.10;85.10;;;;;;4966503;28;92534;-85
2023/07/29 01:55:14;;;;;;;83.95;52.97;;;20.10;85.60;;;;;;4986794;28;89185;-84
2023/07/29 01:57:39;;;;;;;82.78;53.03;;;20.10;85.70;;;;;;4970086;28;92812;-83
2023/07/29 02:00:06;;;;;;;83.75;53.08;;;20.10;85.20;;;;;;4989229;28;89777;-83
2023/07/29 02:02:31;;;;;;;82.45;52.78;;;20.10;85.10;;;;;;4983588;28;92311;-83
2023/07/29 02:04:57;;;;;;;82.43;52.83;;;20.00;85.60;;;;;;4970112;28;89822;-85
2023/07/29 02:07:23;;;;;;;82.72;52.70;;;20.10;87.30;;;;;;4962816;28;93565;-83
2023/07/29 02:09:48;;;;;;;82.80;52.83;;;20.00;86.30;;;;;;4979745;28;90683;-83
2023/07/29 02:12:14;;;;;;;83.78;53.00;;;20.00;87.80;;;;;;4968635;28;89522;-83
2023/07/29 02:14:39;;;;;;;83.10;53.08;;;20.00;85.40;;;;;;4971415;28;90043;-83
2023/07/29 02:17:05;;;;;;;83.63;53.53;;;20.00;85.50;;;;;;4986671;28;90910;-85
2023/07/29 02:19:31;;;;;;;82.80;52.80;;;20.00;85.70;;;;;;4982481;28;93644;-83
2023/07/29 02:21:56;;;;;;;82.25;52.60;;;20.00;85.40;;;;;;4968925;28;89471;-83
2023/07/29 02:24:22;;;;;;;83.80;53.05;;;19.90;86.20;;;;;;4963762;28;88960;-83
2023/07/29 02:26:47;;;;;;;83.95;52.95;;;19.90;86.00;;;;;;4965943;28;93269;-83
2023/07/29 02:29:13;;;;;;;83.45;53.08;;;19.90;85.50;;;;;;4981716;28;90283;-83
2023/07/29 02:31:39;;;;;;;82.60;52.75;;;19.90;86.10;;;;;;4968587;28;92427;-83
2023/07/29 02:34:04;;;;;;;82.70;52.88;;;19.90;85.40;;;;;;4985737;28;93208;-84
2023/07/29 02:36:30;;;;;;;82.85;53.15;;;19.90;86.20;;;;;;4969079;28;92932;-83
2023/07/29 02:38:56;;;;;;;85.93;53.45;;;19.90;85.60;;;;;;4967545;28;92704;-83
2023/07/29 02:41:22;;;;;;;82.75;53.10;;;19.90;85.60;;;;;;4973224;28;89366;-84
2023/07/29 02:43:51;;;;;;;82.50;52.95;;;19.90;86.00;;;;;;4970819;28;90197;-82
2023/07/29 02:46:17;;;;;;;83.20;53.03;;;19.90;86.10;;;;;;4985987;28;92339;-83
2023/07/29 02:48:44;;;;;;;82.20;52.80;;;19.80;85.60;;;;;;4968923;28;97750;-86
2023/07/29 02:51:10;;;;;;;82.50;52.67;;;19.80;85.90;;;;;;4969269;28;90168;-83
2023/07/29 02:53:38;;;;;;;83.18;52.90;;;19.80;85.90;;;;;;4970599;28;91641;-83
2023/07/29 02:56:06;;;;;;;82.82;53.10;;;19.80;86.30;;;;;;4985428;28;91056;-84
2023/07/29 02:58:31;;;;;;;82.95;53.03;;;19.80;85.70;;;;;;4982163;28;89791;-85
2023/07/29 03:01:04;;;;;;;82.50;52.95;;;19.80;85.90;;;;;;4978324;28;89275;-83
2023/07/29 03:03:30;;;;;;;82.82;53.00;;;19.70;85.70;;;;;;4968115;28;89284;-83
2023/07/29 03:06:01;;;;;;;83.63;53.03;;;19.80;85.60;;;;;;4984871;28;90079;-83
2023/07/29 03:08:27;;;;;;;83.28;53.22;;;19.70;85.60;;;;;;4966781;28;92330;-84
2023/07/29 03:10:53;;;;;;;83.88;52.92;;;19.70;85.60;;;;;;4966647;28;93978;-82
2023/07/29 03:13:19;;;;;;;82.80;53.17;;;19.80;85.50;;;;;;4982090;28;88723;-83
2023/07/29 03:15:45;;;;;;;82.68;53.15;;;19.80;85.60;;;;;;4986534;28;89903;-83
2023/07/29 03:18:10;;;;;;;82.95;52.90;;;19.70;86.00;;;;;;4981382;28;91223;-83
2023/07/29 03:20:36;;;;;;;82.35;52.90;;;19.80;85.80;;;;;;4985065;28;91785;-82
2023/07/29 03:23:02;;;;;;;82.22;52.85;;;19.70;85.70;;;;;;4967255;28;88902;-83
2023/07/29 03:25:28;;;;;;;82.10;52.83;;;19.80;85.90;;;;;;4965074;28;93136;-83
2023/07/29 03:27:54;;;;;;;82.57;53.20;;;19.70;85.80;;;;;;4982160;28;89795;-83
2023/07/29 03:30:21;;;;;;;83.28;53.00;;;19.80;86.00;;;;;;4980342;28;90836;-83
2023/07/29 03:32:49;;;;;;;82.68;52.95;;;19.80;85.80;;;;;;4984304;28;89626;-83
2023/07/29 03:35:15;;;;;;;82.35;52.72;;;19.80;85.60;;;;;;4960702;28;92276;-84
2023/07/29 03:37:41;;;;;;;82.70;52.83;;;19.80;86.30;;;;;;4969430;28;92193;-83
2023/07/29 03:40:08;;;;;;;82.38;52.83;;;19.70;85.30;;;;;;4967534;28;90284;-83
2023/07/29 03:42:34;;;;;;;82.30;52.88;;;19.80;85.60;;;;;;4981853;28;89121;-83
2023/07/29 03:45:00;;;;;;;82.10;52.65;;;19.70;85.90;;;;;;4967083;28;93468;-84
2023/07/29 03:47:26;;;;;;;82.38;52.85;;;19.70;85.70;;;;;;4965818;28;92781;-82
2023/07/29 03:49:51;;;;;;;81.80;52.55;;;19.70;85.90;;;;;;4968706;28;93561;-83
2023/07/29 03:52:17;;;;;;;81.88;52.88;;;19.80;86.70;;;;;;4985761;28;90447;-84
2023/07/29 03:54:43;;;;;;;82.13;52.95;;;19.80;85.90;;;;;;4985686;28;90082;-83
2023/07/29 03:57:08;;;;;;;82.30;52.85;;;19.70;85.40;;;;;;4967246;28;92369;-83
2023/07/29 03:59:34;;;;;;;82.20;53.05;;;19.80;86.00;;;;;;4983855;28;89107;-83
2023/07/29 04:01:59;;;;;;;82.30;52.92;;;19.70;86.20;;;;;;4967424;28;89506;-85
2023/07/29 04:04:25;;;;;;;82.35;52.70;;;19.80;85.80;;;;;;4983854;28;90608;-83
2023/07/29 04:06:51;;;;;;;82.97;53.13;;;19.80;87.70;;;;;;4961295;28;92652;-83
2023/07/29 04:09:16;;;;;;;82.38;52.85;;;19.80;85.50;;;;;;4978846;28;91315;-84
2023/07/29 04:11:42;;;;;;;81.95;52.90;;;19.80;86.30;;;;;;4980297;28;90424;-83
2023/07/29 04:14:07;;;;;;;82.60;53.10;;;19.80;85.90;;;;;;4986506;28;91382;-83
2023/07/29 04:16:33;;;;;;;82.45;52.92;;;19.80;86.00;;;;;;4968920;28;91840;-83
2023/07/29 04:18:58;;;;;;;82.07;52.92;;;19.80;85.10;;;;;;4963751;28;89908;-83
2023/07/29 04:21:24;;;;;;;82.07;52.92;;;19.70;85.60;;;;;;4967887;28;90626;-83
2023/07/29 04:23:49;;;;;;;82.40;52.80;;;19.80;86.00;;;;;;4966116;28;92319;-83
2023/07/29 04:26:15;;;;;;;83.00;53.10;;;19.70;85.60;;;;;;4970016;28;92068;-83
2023/07/29 04:28:41;;;;;;;82.88;52.92;;;19.70;85.30;;;;;;4966595;28;91064;-83
2023/07/29 04:31:07;;;;;;;82.13;52.83;;;19.70;85.20;;;;;;4971719;28;89285;-83
2023/07/29 04:33:32;;;;;;;82.18;52.88;;;19.70;85.60;;;;;;4964303;28;92942;-84
2023/07/29 04:35:58;;;;;;;81.90;52.55;;;19.70;85.60;;;;;;4983672;28;90628;-83
2023/07/29 04:38:30;;;;;;;81.95;52.83;;;19.70;85.80;;;;;;4968993;28;89626;-83
2023/07/29 04:40:55;;;;;;;83.45;53.20;;;19.70;85.70;;;;;;4978890;28;90772;-84
2023/07/29 04:43:21;;;;;;;82.57;52.83;;;19.70;85.40;;;;;;4962913;28;94234;-83
2023/07/29 04:45:47;;;;;;;82.38;52.72;;;19.70;85.60;;;;;;4966107;28;92646;-83
2023/07/29 04:48:12;;;;;;;82.28;53.05;;;19.60;85.50;;;;;;4965775;28;90651;-83
2023/07/29 04:50:38;;;;;;;82.10;52.88;;;19.60;85.30;;;;;;4984581;28;92042;-84
2023/07/29 04:53:03;;;;;;;82.53;52.75;;;19.60;85.90;;;;;;4961873;28;92764;-82
2023/07/29 04:55:29;;;;;;;82.40;53.20;;;19.60;85.20;;;;;;4966440;28;91770;-83
2023/07/29 04:57:54;;;;;;;82.65;52.85;;;19.70;86.30;;;;;;4969460;28;91474;-83
2023/07/29 05:00:20;;;;;;;82.30;52.78;;;19.60;85.70;;;;;;4966284;28;92091;-83
2023/07/29 05:02:46;;;;;;;82.57;53.20;;;19.70;85.00;;;;;;4969500;28;92151;-84
2023/07/29 05:05:11;;;;;;;82.55;53.00;;;19.70;85.40;;;;;;4969749;28;91998;-83
2023/07/29 05:07:37;;;;;;;82.30;52.75;;;19.70;85.50;;;;;;4970580;28;94362;-84
2023/07/29 05:10:02;;;;;;;82.68;52.95;;;19.70;85.20;;;;;;4971067;28;89416;-83
2023/07/29 05:12:29;;;;;;;83.82;52.78;;;19.70;85.70;;;;;;4969341;28;93882;-84
2023/07/29 05:14:55;;;;;;;82.32;52.75;;;19.70;86.40;;;;;;4984224;28;89809;-85
2023/07/29 05:17:21;;;;;;;82.55;53.13;;;19.70;85.00;;;;;;4989366;28;89176;-84
2023/07/29 05:19:46;;;;;;;82.55;52.92;;;19.80;86.40;;;;;;4984691;28;90863;-83
2023/07/29 05:22:12;;;;;;;82.90;52.90;;;19.70;86.20;;;;;;4980636;28;90841;-84
2023/07/29 05:24:38;;;;;;;82.57;53.05;;;19.80;84.90;;;;;;4958127;28;93226;-83
2023/07/29 05:27:03;;;;;;;82.68;52.85;;;19.80;85.10;;;;;;4982551;28;89004;-84
2023/07/29 05:29:29;;;;;;;82.95;52.63;;;19.80;85.40;;;;;;4967742;28;89811;-85
2023/07/29 05:31:55;;;;;;;83.05;52.78;;;19.90;85.90;;;;;;4968027;28;95205;-84
2023/07/29 05:34:20;;;;;;;82.18;52.85;;;19.80;84.40;;;;;;4964385;28;91170;-83
2023/07/29 05:36:46;;;;;;;82.53;52.78;;;19.90;85.10;;;;;;4968220;28;90039;-83
2023/07/29 05:39:12;;;;;;;83.05;52.95;;;19.90;85.40;;;;;;4988638;28;89426;-83
2023/07/29 05:41:37;;;;;;;82.45;52.95;;;19.90;86.20;;;;;;4983537;28;91006;-83
2023/07/29 05:44:03;;;;;;;82.63;52.88;;;19.90;85.90;;;;;;4985880;28;90605;-84
2023/07/29 05:46:28;;;;;;;82.65;52.80;;;20.00;84.60;;;;;;4967213;28;90100;-85
2023/07/29 05:48:54;;;;;;;83.03;52.80;;;20.00;84.80;;;;;;4989661;28;89134;-83
2023/07/29 05:51:20;;;;;;;82.50;52.67;;;20.00;84.50;;;;;;4989965;28;90232;-86
2023/07/29 05:53:45;;;;;;;83.10;53.05;;;20.00;85.60;;;;;;4971953;28;93102;-86
2023/07/29 05:56:11;;;;;;;82.82;52.83;;;20.10;83.80;;;;;;4988848;28;91702;-83
2023/07/29 05:58:36;;;;;;;82.78;52.97;;;20.10;85.30;;;;;;4979160;28;89234;-83
2023/07/29 06:01:02;;;;;;;82.82;52.75;;;20.10;84.40;;;;;;4962839;28;92249;-83
2023/07/29 06:03:28;;;;;;;83.93;52.85;;;20.10;85.80;;;;;;4967244;28;92758;-84
2023/07/29 06:05:54;;;;;;;82.30;52.92;;;20.10;84.90;;;;;;4982947;28;89224;-83
2023/07/29 06:08:19;;;;;;;83.07;52.78;;;20.10;87.70;;;;;;4985246;28;90864;-85
2023/07/29 06:10:45;;;;;;;82.88;52.85;;;20.10;84.30;;;;;;4971547;28;97993;-84
2023/07/29 06:13:11;;;;;;;82.85;53.00;;;20.10;84.00;;;;;;4970428;28;93681;-85
2023/07/29 06:15:36;;;;;;;82.80;52.88;;;20.10;84.60;;;;;;4968980;28;89354;-84
2023/07/29 06:18:02;;;;;;;82.63;52.88;;;20.20;84.00;;;;;;4968607;28;91130;-83
2023/07/29 06:20:28;;;;;;;82.70;52.75;;;20.20;84.10;;;;;;4988191;28;90064;-83
2023/07/29 06:22:54;;;;;;;83.80;52.97;;;20.20;84.70;;;;;;4989066;28;91684;-84
2023/07/29 06:25:19;;;;;;;83.28;53.13;;;20.20;85.30;;;;;;4985352;28;91944;-85
2023/07/29 06:27:45;;;;;;;86.35;52.92;;;20.20;83.80;;;;;;4985989;28;89540;-83
2023/07/29 06:30:11;;;;;;;83.30;52.95;;;20.20;83.80;;;;;;4965818;28;93307;-84
2023/07/29 06:32:36;;;;;;;83.65;53.15;;;20.30;84.30;;;;;;4992851;28;89484;-85
2023/07/29 06:35:02;;;;;;;83.43;53.03;;;20.30;84.20;;;;;;4967046;28;90377;-85
2023/07/29 06:37:28;;;;;;;83.32;53.08;;;20.40;83.60;;;;;;4982578;28;89146;-83
2023/07/29 06:39:53;;;;;;;86.75;53.55;;;20.40;83.30;;;;;;4966351;28;94118;-83
2023/07/29 06:42:19;;;;;;;83.60;53.50;;;20.50;82.80;;;;;;4981495;28;90859;-84
2023/07/29 06:44:45;;;;;;;84.05;52.88;;;20.60;83.20;;;;;;4967136;28;89091;-84
2023/07/29 06:47:12;;;;;;;84.25;53.38;;;20.60;82.20;;;;;;4985656;28;89211;-84
2023/07/29 06:49:37;;;;;;;84.07;53.72;;;20.70;82.10;;;;;;4984985;28;90795;-84
2023/07/29 06:52:03;;;;;;;84.38;53.33;;;20.70;82.40;;;;;;4985650;28;90999;-84
2023/07/29 06:54:28;;;;;;;83.25;53.00;;;20.60;83.90;;;;;;4965264;28;89381;-84
2023/07/29 06:56:54;;;;;;;83.35;53.03;;;20.70;85.10;;;;;;4969925;28;89818;-84
2023/07/29 06:59:20;;;;;;;84.53;53.20;;;20.70;82.90;;;;;;4965516;28;93340;-84
2023/07/29 07:01:46;;;;;;;85.40;53.53;;;20.70;82.40;;;;;;4966945;28;93637;-84
2023/07/29 07:04:11;;;;;;;84.93;53.20;;;20.80;84.80;;;;;;4979609;28;90638;-84
2023/07/29 07:06:37;;;;;;;84.10;53.47;;;20.80;82.80;;;;;;4966527;28;90563;-87
2023/07/29 07:09:03;;;;;;;84.25;53.55;;;20.90;82.40;;;;;;4982633;28;89777;-87
2023/07/29 07:11:28;;;;;;;84.20;53.38;;;20.90;82.60;;;;;;4963794;28;91511;-85
2023/07/29 07:13:54;;;;;;;84.95;53.75;;;21.00;84.40;;;;;;4967920;28;92789;-84
2023/07/29 07:16:19;;;;;;;84.10;53.25;;;21.00;84.40;;;;;;4967268;28;91683;-83
2023/07/29 07:18:45;;;;;;;84.40;53.35;;;21.10;83.20;;;;;;4965729;28;93040;-86
2023/07/29 07:21:11;;;;;;;84.95;53.65;;;21.10;82.60;;;;;;4970602;28;92460;-84
2023/07/29 07:23:36;;;;;;;84.10;53.35;;;21.10;83.40;;;;;;4970873;28;91983;-84
2023/07/29 07:26:02;;;;;;;84.57;53.50;;;21.20;82.50;;;;;;4982375;28;90917;-85
2023/07/29 07:28:28;;;;;;;84.47;53.58;;;21.20;82.00;;;;;;4971003;28;92362;-84
2023/07/29 07:30:55;;;;;;;84.85;53.63;;;21.30;82.40;;;;;;4984217;28;93604;-86
2023/07/29 07:33:21;;;;;;;85.57;53.72;;;21.40;82.20;;;;;;4992183;28;89275;-84
2023/07/29 07:35:47;;;;;;;87.50;53.83;;;21.40;84.20;;;;;;4967573;28;89746;-84
2023/07/29 07:38:12;;;;;;;84.47;53.58;;;21.40;82.20;;;;;;4948870;28;93397;-84
2023/07/29 07:40:38;;;;;;;84.47;53.42;;;21.40;82.10;;;;;;4945569;28;90267;-84
2023/07/29 07:43:04;;;;;;;84.53;53.35;;;21.40;82.90;;;;;;4948636;28;90761;-85
2023/07/29 07:45:31;;;;;;;84.63;53.55;;;21.40;82.50;;;;;;4942522;28;93680;-84
2023/07/29 07:47:57;;;;;;;85.65;53.50;;;21.50;83.70;;;;;;4939432;28;94489;-84
2023/07/29 07:50:23;;;;;;;85.03;53.35;;;21.50;84.30;;;;;;4944669;28;91404;-85
2023/07/29 07:52:49;;;;;;;84.60;53.47;;;21.50;83.70;;;;;;4945693;28;90639;-84
2023/07/29 07:55:15;;;;;;;85.60;53.35;;;21.50;83.50;;;;;;4943833;28;90013;-86
2023/07/29 07:57:41;;;;;;;85.25;53.45;;;21.60;85.10;;;;;;4959652;28;91792;-87
2023/07/29 08:00:07;;;;;;;85.88;53.67;;;21.60;87.30;;;;;;4956850;28;89011;-87
2023/07/29 08:02:32;;;;;;;86.30;54.42;;;21.70;86.90;;;;;;4949966;28;90263;-87
2023/07/29 08:04:58;;;;;;;86.03;54.20;;;21.70;84.50;;;;;;4942407;28;89589;-87
2023/07/29 08:07:23;;;;;;;86.93;54.20;;;21.90;83.00;;;;;;4944462;28;93170;-85
2023/07/29 08:09:49;;;;;;;86.97;54.60;;;21.90;81.60;;;;;;4939351;28;92466;-89
2023/07/29 08:12:15;;;;;;;87.65;54.22;;;22.00;80.00;;;;;;4942128;28;91069;-87
2023/07/29 08:14:40;;;;;;;86.88;54.50;;;22.20;78.10;;;;;;4948429;28;92681;-87
2023/07/29 08:17:06;;;;;;;87.40;54.35;;;22.30;77.50;;;;;;4943702;28;92502;-87
2023/07/29 08:19:32;;;;;;;86.97;54.67;;;22.30;78.00;;;;;;4946149;28;92598;-88
2023/07/29 08:21:58;;;;;;;87.38;54.58;;;22.40;78.20;;;;;;4949642;28;89447;-87
2023/07/29 08:24:24;;;;;;;88.03;54.63;;;22.50;77.90;;;;;;4941682;28;89832;-86
2023/07/29 08:26:49;;;;;;;86.43;54.53;;;22.60;77.70;;;;;;4940853;28;93316;-87
2023/07/29 08:29:15;;;;;;;87.68;55.10;;;22.60;77.40;;;;;;4949529;28;92373;-87
2023/07/29 08:31:40;;;;;;;87.22;54.70;;;22.70;77.70;;;;;;4943098;28;89485;-87
2023/07/29 08:34:06;;;;;;;86.18;54.78;;;22.70;77.70;;;;;;4944210;28;89832;-88
2023/07/29 08:36:32;;;;;;;87.07;55.05;;;22.70;77.30;;;;;;4947269;28;92155;-87
2023/07/29 08:38:58;;;;;;;88.00;54.80;;;22.60;77.50;;;;;;4962147;28;91005;-89
2023/07/29 08:41:31;;;;;;;86.95;55.05;;;22.60;77.30;;;;;;4964955;28;90549;-88
2023/07/29 08:44:17;;;;;;;86.18;54.72;;;22.60;77.20;;;;;;4971317;28;89280;-88
2023/07/29 08:46:43;;;;;;;85.85;54.78;;;22.60;77.40;;;;;;4971553;28;90197;-88
2023/07/29 08:49:11;;;;;;;86.45;54.78;;;22.60;77.60;;;;;;4971507;28;90665;-89
2023/07/29 08:51:38;;;;;;;87.40;54.67;;;22.60;79.10;;;;;;4979713;28;89480;-88
2023/07/29 08:54:04;;;;;;;87.70;54.70;;;22.50;78.40;;;;;;4970595;28;88641;-89
2023/07/29 08:56:30;;;;;;;88.82;54.80;;;22.50;78.20;;;;;;4990321;28;89627;-89
2023/07/29 08:58:56;;;;;;;86.68;54.80;;;22.60;78.90;;;;;;4966557;28;90160;-89
2023/07/29 09:01:21;;;;;;;87.72;54.90;;;22.60;80.70;;;;;;4984342;28;89894;-88
2023/07/29 09:03:47;;;;;;;88.00;55.17;;;22.60;80.50;;;;;;4969171;28;89161;-90
2023/07/29 09:06:14;;;;;;;86.68;54.70;;;22.80;80.10;;;;;;4971774;28;90903;-90
2023/07/29 09:08:40;;;;;;;88.00;55.90;;;22.90;80.60;;;;;;4960613;28;92547;-89
2023/07/29 09:11:06;;;;;;;87.32;56.25;;;22.90;80.30;;;;;;4985103;28;89103;-89
2023/07/29 09:13:31;;;;;;;88.38;55.97;;;22.90;80.40;;;;;;4966437;28;89197;-89
2023/07/29 09:15:58;;;;;;;88.43;55.58;;;22.90;80.00;;;;;;4967999;28;91207;-89
2023/07/29 09:18:26;;;;;;;88.45;55.40;;;23.00;79.80;;;;;;4968716;28;92615;-89
2023/07/29 09:20:52;;;;;;;87.45;55.30;;;23.10;79.00;;;;;;4988471;28;89314;-88
2023/07/29 09:23:18;;;;;;;87.80;54.90;;;23.00;77.80;;;;;;4968751;28;89982;-89
2023/07/29 09:25:47;;;;;;;86.80;54.88;;;23.00;77.20;;;;;;4970706;28;90097;-88
2023/07/29 09:28:14;;;;;;;86.32;54.72;;;22.90;77.10;;;;;;4971496;28;93774;-88
2023/07/29 09:30:44;;;;;;;87.75;54.53;;;23.00;76.90;;;;;;4968379;28;90213;-89
2023/07/29 09:33:10;;;;;;;86.97;54.85;;;23.00;74.60;;;;;;4966094;28;89712;-88
2023/07/29 09:35:37;;;;;;;87.00;55.15;;;23.10;75.90;;;;;;4972037;28;91576;-88
2023/07/29 09:38:04;;;;;;;86.93;55.13;;;23.20;75.70;;;;;;4969578;28;89971;-90
2023/07/29 09:40:38;;;;;;;87.75;54.97;;;23.30;76.00;;;;;;4985389;28;89430;-89
2023/07/29 09:43:04;;;;;;;85.97;54.42;;;23.30;76.10;;;;;;4970587;28;87913;-90
2023/07/29 09:45:33;;;;;;;86.38;54.83;;;23.30;73.80;;;;;;4976832;28;92194;-89
2023/07/29 09:47:58;;;;;;;86.13;54.65;;;23.30;74.40;;;;;;4982921;28;92402;-90
2023/07/29 09:50:25;;;;;;;86.43;54.67;;;23.30;73.70;;;;;;4983696;28;90029;-89
2023/07/29 09:52:52;;;;;;;86.63;54.75;;;23.40;74.60;;;;;;4982039;28;90162;-89
2023/07/29 09:55:19;;;;;;;87.10;54.90;;;23.40;75.80;;;;;;4977031;28;91245;-89
2023/07/29 09:57:45;;;;;;;87.85;55.25;;;23.40;73.80;;;;;;4980507;28;89181;-89
2023/07/29 10:00:12;;;;;;;87.15;55.45;;;23.40;73.80;;;;;;4992595;28;88789;-89
2023/07/29 10:02:43;;;;;;;88.50;55.85;;;23.60;73.60;;;;;;4974800;28;89207;-89
2023/07/29 10:05:09;;;;;;;;;;;23.60;73.70;;;;;;5000834;28;89410;-88
2023/07/29 10:07:39;;;;;;;90.13;56.08;;;23.50;72.60;;;;;;4978232;28;88335;-90
2023/07/29 10:10:07;;;;;;;87.10;55.67;;;23.50;73.10;;;;;;4971289;28;89841;-89
2023/07/29 10:12:35;;;;;;;87.40;55.15;;;23.60;73.90;;;;;;4993787;28;89584;-90
2023/07/29 10:15:04;;;;;;;87.68;54.95;;;23.60;74.70;;;;;;4958379;28;91147;-88
2023/07/29 10:17:33;;;;;;;88.72;55.40;;;23.70;72.90;;;;;;4970819;28;90558;-88
2023/07/29 10:19:59;;;;;;;88.63;55.25;;;23.70;71.70;;;;;;4980532;28;89381;-89
2023/07/29 10:22:28;;;;;;;87.18;55.60;;;23.70;72.30;;;;;;4972186;28;89103;-88
2023/07/29 10:25:05;;;;;;;88.90;55.97;;;23.60;72.90;;;;;;4988932;28;92230;-89
2023/07/29 10:27:55;;;;;;;88.43;56.55;;;23.60;73.00;;;;;;4972262;28;91695;-89
2023/07/29 10:30:21;;;;;;;87.60;56.20;;;23.60;71.40;;;;;;4969667;28;89312;-90
2023/07/29 10:32:48;;;;;;;87.65;55.85;;;23.70;71.50;;;;;;4987528;28;88866;-90
2023/07/29 10:35:15;;;;;;;88.22;56.40;;;23.80;71.70;;;;;;4973617;28;90175;-92
2023/07/29 10:37:42;;;;;;;90.70;56.08;;;23.80;71.40;;;;;;4982989;28;89285;-91
2023/07/29 10:40:09;;;;;;;88.47;56.10;;;23.90;70.40;;;;;;4978761;28;90432;-90
2023/07/29 10:42:36;;;;;;;87.32;55.80;;;23.90;69.80;;;;;;4977177;28;89395;-90
2023/07/29 10:45:21;;;;;;;87.95;55.63;;;23.80;68.50;;;;;;4989378;28;93513;-91
2023/07/29 10:47:48;;;;;;;88.90;55.20;;;23.90;69.00;;;;;;4973114;28;92277;-91
2023/07/29 10:50:21;;;;;;;87.38;55.17;;;23.90;68.40;;;;;;4972932;28;88998;-89
2023/07/29 10:52:52;;;;;;;87.32;55.20;;;23.80;69.10;;;;;;4974057;28;88972;-89
2023/07/29 10:55:27;;;;;;;86.55;55.15;;;23.80;69.30;;;;;;4984562;28;89798;-91
2023/07/29 10:58:03;;;;;;;86.47;54.83;;;23.60;70.00;;;;;;4974544;28;90595;-89
2023/07/29 11:00:32;;;;;;;87.03;54.90;;;23.60;70.70;;;;;;4969240;28;88777;-91
2023/07/29 11:03:06;;;;;;;88.28;54.58;;;23.70;69.10;;;;;;4972976;28;88914;-89
2023/07/29 11:05:52;;;;;;;87.55;54.85;;;23.80;69.10;;;;;;4968142;28;91281;-91
2023/07/29 11:08:19;;;;;;;87.38;54.67;;;23.80;67.70;;;;;;4987576;28;90853;-89
2023/07/29 11:11:00;;;;;;;86.78;54.72;;;23.80;68.30;;;;;;4973285;28;89060;-89
2023/07/29 11:13:26;;;;;;;;;;;23.70;69.00;;;;;;4972243;28;90290;-89
2023/07/29 11:15:53;;;;;;;85.88;54.47;;;23.60;69.60;;;;;;4972038;28;90035;-89
2023/07/29 11:18:20;;;;;;;87.85;54.85;;;23.70;70.20;;;;;;4972336;28;92898;-90
2023/07/29 11:20:47;;;;;;;88.43;54.88;;;23.70;70.60;;;;;;4969732;28;90052;-90
2023/07/29 11:23:13;;;;;;;86.65;54.63;;;23.70;71.60;;;;;;4977176;28;88370;-91
2023/07/29 11:25:39;;;;;;;88.60;54.83;;;23.60;72.20;;;;;;4973003;28;90825;-89
2023/07/29 11:28:07;;;;;;;87.18;54.70;;;23.60;72.30;;;;;;4993432;28;89068;-91
2023/07/29 11:30:33;;;;;;;87.35;54.42;;;23.60;73.20;;;;;;4975137;28;91741;-90
2023/07/29 11:33:02;;;;;;;86.18;54.63;;;23.70;72.40;;;;;;4969364;28;89549;-89
2023/07/29 11:35:28;;;;;;;98.75;55.05;;;23.80;71.50;;;;;;4966808;28;93255;-90
2023/07/29 11:37:56;;;;;;;94.57;55.72;;;23.90;71.90;;;;;;4966777;28;91626;-89
2023/07/29 11:40:22;;;;;;;90.30;55.83;;;23.90;73.10;;;;;;4983618;28;89901;-89
2023/07/29 11:42:50;;;;;;;89.60;55.55;;;24.00;72.60;;;;;;4969716;28;89621;-89
2023/07/29 11:45:16;;;;;;;87.38;55.33;;;24.00;71.00;;;;;;4974788;28;92406;-88
2023/07/29 11:47:42;;;;;;;88.53;55.53;;;24.00;70.40;;;;;;4957436;28;90396;-89
2023/07/29 11:50:09;;;;;;;87.85;55.25;;;24.10;69.70;;;;;;4982559;28;89503;-89
2023/07/29 11:52:36;;;;;;;89.43;55.47;;;24.10;70.00;;;;;;4979711;28;89324;-89
2023/07/29 11:55:04;;;;;;;88.72;55.63;;;24.20;70.00;;;;;;4961591;28;91444;-89
2023/07/29 11:57:31;;;;;;;91.05;55.92;;;24.20;69.40;;;;;;4982516;28;92710;-89
2023/07/29 11:59:57;;;;;;;88.00;55.80;;;24.30;69.90;;;;;;4980118;28;89655;-89
2023/07/29 12:02:24;;;;;;;88.82;55.70;;;24.30;69.30;;;;;;4976049;28;89428;-90
2023/07/29 12:04:50;;;;;;;90.32;55.83;;;24.40;68.90;;;;;;4964181;28;92017;-89
2023/07/29 12:07:17;;;;;;;94.55;57.42;;;24.30;70.10;;;;;;4968325;28;92042;-88
2023/07/29 12:09:43;;;;;;;94.47;58.08;;;24.30;70.70;;;;;;5001420;28;89508;-88
2023/07/29 12:12:09;;;;;;;97.70;58.40;;;24.40;71.60;;;;;;5007465;28;87999;-89
2023/07/29 12:14:35;;;;;;;95.28;57.13;;;24.30;72.60;;;;;;5009942;27;90219;-88
2023/07/29 12:17:02;;;;;;;92.95;56.80;;;24.30;72.40;;;;;;4967888;28;92919;-89
2023/07/29 12:19:33;;;;;;;94.55;57.13;;;24.30;71.40;;;;;;4961191;28;91545;-89
2023/07/29 12:21:59;;;;;;;91.85;56.95;;;24.50;71.80;;;;;;4965975;28;90325;-89
2023/07/29 12:24:24;;;;;;;93.30;57.58;;;24.50;71.50;;;;;;4987309;28;89429;-89
2023/07/29 12:26:51;;;;;;;92.15;56.80;;;24.60;70.90;;;;;;4977298;28;93129;-89